sensor_id;sensor_type;location;lat;lon;timestamp;pressure;altitude;pressure_sealevel;temperature;humidity
10348;BME280;5220;43.192;23.284;2023-02-13T00:00:43;98849.16;;;3.28;100.00
10348;BME280;5220;43.192;23.284;2023-02-13T00:03:10;98853.28;;;3.41;100.00
10348;BME280;5220;43.192;23.284;2023-02-13T00:05:37;98855.75;;;3.47;100.00
10348;BME280;5220;43.192;23.284;2023-02-13T00:08:04;98857.47;;;3.48;100.00
10348;BME280;5220;43.192;23.284;2023-02-13T00:10:31;98840.28;;;3.50;100.00
10348;BME280;5220;43.192;23.284;2023-02-13T00:12:57;98847.19;;;3.48;100.00
10348;BME280;5220;43.192;23.284;2023-02-13T00:15:24;98849.75;;;3.48;100.00
10348;BME280;5220;43.192;23.284;2023-02-13T00:17:52;98853.31;;;3.39;100.00
10348;BME280;5220;43.192;23.284;2023-02-13T00:20:19;98851.53;;;3.43;100.00
10348;BME280;5220;43.192;23.284;2023-02-13T00:22:46;98861.81;;;3.44;100.00
10348;BME280;5220;43.192;23.284;2023-02-13T00:25:12;98859.19;;;3.46;100.00
10348;BME280;5220;43.192;23.284;2023-02-13T00:27:39;98867.84;;;3.42;100.00
10348;BME280;5220;43.192;23.284;2023-02-13T00:30:06;98861.84;;;3.40;100.00
10348;BME280;5220;43.192;23.284;2023-02-13T00:32:33;98867.97;;;3.31;100.00
10348;BME280;5220;43.192;23.284;2023-02-13T00:35:02;98866.31;;;3.29;100.00
10348;BME280;5220;43.192;23.284;2023-02-13T00:37:29;98864.72;;;3.20;100.00
10348;BME280;5220;43.192;23.284;2023-02-13T00:39:56;98868.09;;;3.22;100.00
10348;BME280;5220;43.192;23.284;2023-02-13T00:42:23;98874.31;;;3.07;100.00
10348;BME280;5220;43.192;23.284;2023-02-13T00:44:51;98875.06;;;3.15;100.00
10348;BME280;5220;43.192;23.284;2023-02-13T00:47:18;98870.06;;;3.05;100.00
10348;BME280;5220;43.192;23.284;2023-02-13T00:49:45;98878.44;;;3.20;100.00
10348;BME280;5220;43.192;23.284;2023-02-13T00:52:13;98873.50;;;3.02;100.00
10348;BME280;5220;43.192;23.284;2023-02-13T00:54:39;98868.50;;;2.90;100.00
10348;BME280;5220;43.192;23.284;2023-02-13T00:57:06;98876.84;;;3.09;100.00
10348;BME280;5220;43.192;23.284;2023-02-13T00:59:33;98880.31;;;3.06;100.00
10348;BME280;5220;43.192;23.284;2023-02-13T01:01:59;98879.44;;;3.07;100.00
10348;BME280;5220;43.192;23.284;2023-02-13T01:04:26;98882.91;;;3.03;100.00
10348;BME280;5220;43.192;23.284;2023-02-13T01:06:53;98883.78;;;3.04;100.00
10348;BME280;5220;43.192;23.284;2023-02-13T01:09:21;98881.91;;;3.16;100.00
10348;BME280;5220;43.192;23.284;2023-02-13T01:11:48;98880.09;;;3.23;100.00
10348;BME280;5220;43.192;23.284;2023-02-13T01:14:14;98886.88;;;3.27;100.00
10348;BME280;5220;43.192;23.284;2023-02-13T01:16:41;98878.25;;;3.33;100.00
10348;BME280;5220;43.192;23.284;2023-02-13T01:19:08;98883.28;;;3.40;100.00
10348;BME280;5220;43.192;23.284;2023-02-13T01:21:34;98878.22;;;3.36;100.00
10348;BME280;5220;43.192;23.284;2023-02-13T01:24:03;98878.31;;;3.28;100.00
10348;BME280;5220;43.192;23.284;2023-02-13T01:26:31;98872.31;;;3.29;100.00
10348;BME280;5220;43.192;23.284;2023-02-13T01:28:57;98880.03;;;3.28;100.00
10348;BME280;5220;43.192;23.284;2023-02-13T01:31:25;98877.59;;;3.18;100.00
10348;BME280;5220;43.192;23.284;2023-02-13T01:33:55;98861.41;;;3.10;100.00
10348;BME280;5220;43.192;23.284;2023-02-13T01:36:22;98859.69;;;3.09;100.00
10348;BME280;5220;43.192;23.284;2023-02-13T01:38:51;98863.91;;;3.16;100.00
10348;BME280;5220;43.192;23.284;2023-02-13T01:41:18;98864.72;;;3.18;100.00
10348;BME280;5220;43.192;23.284;2023-02-13T01:43:49;98863.00;;;3.20;100.00
10348;BME280;5220;43.192;23.284;2023-02-13T01:46:20;98862.09;;;3.23;100.00
10348;BME280;5220;43.192;23.284;2023-02-13T01:48:48;98857.94;;;3.11;100.00
10348;BME280;5220;43.192;23.284;2023-02-13T01:51:19;98852.81;;;3.14;100.00
10348;BME280;5220;43.192;23.284;2023-02-13T01:53:50;98854.41;;;3.21;100.00
10348;BME280;5220;43.192;23.284;2023-02-13T01:56:22;98855.22;;;3.27;100.00
10348;BME280;5220;43.192;23.284;2023-02-13T01:58:54;98851.72;;;3.29;100.00
10348;BME280;5220;43.192;23.284;2023-02-13T02:01:23;98855.94;;;3.35;100.00
10348;BME280;5220;43.192;23.284;2023-02-13T02:03:54;98855.97;;;3.33;100.00
10348;BME280;5220;43.192;23.284;2023-02-13T02:06:25;98854.22;;;3.35;100.00
10348;BME280;5220;43.192;23.284;2023-02-13T02:08:54;98849.13;;;3.31;100.00
10348;BME280;5220;43.192;23.284;2023-02-13T02:11:34;98850.88;;;3.29;100.00
10348;BME280;5220;43.192;23.284;2023-02-13T02:14:03;98855.22;;;3.25;100.00
10348;BME280;5220;43.192;23.284;2023-02-13T02:16:31;98853.56;;;3.19;100.00
10348;BME280;5220;43.192;23.284;2023-02-13T02:19:00;98859.66;;;3.12;100.00
10348;BME280;5220;43.192;23.284;2023-02-13T02:24:42;98865.91;;;2.93;100.00
10348;BME280;5220;43.192;23.284;2023-02-13T02:27:41;98873.72;;;2.84;100.00
10348;BME280;5220;43.192;23.284;2023-02-13T02:33:20;98866.13;;;2.77;100.00
10348;BME280;5220;43.192;23.284;2023-02-13T02:36:00;98865.31;;;2.71;100.00
10348;BME280;5220;43.192;23.284;2023-02-13T02:38:44;98864.66;;;2.54;100.00
10348;BME280;5220;43.192;23.284;2023-02-13T02:41:22;98873.19;;;2.58;100.00
10348;BME280;5220;43.192;23.284;2023-02-13T02:44:23;98872.34;;;2.53;100.00
10348;BME280;5220;43.192;23.284;2023-02-13T02:47:07;98880.28;;;2.33;100.00
10348;BME280;5220;43.192;23.284;2023-02-13T02:50:04;98880.38;;;2.21;100.00
10348;BME280;5220;43.192;23.284;2023-02-13T02:52:42;98880.34;;;2.26;100.00
10348;BME280;5220;43.192;23.284;2023-02-13T02:55:22;98869.31;;;2.14;100.00
10348;BME280;5220;43.192;23.284;2023-02-13T02:57:57;98866.81;;;2.08;100.00
10348;BME280;5220;43.192;23.284;2023-02-13T03:00:46;98865.03;;;2.12;100.00
10348;BME280;5220;43.192;23.284;2023-02-13T03:03:29;98866.13;;;1.90;100.00
10348;BME280;5220;43.192;23.284;2023-02-13T03:06:18;98859.25;;;1.90;100.00
10348;BME280;5220;43.192;23.284;2023-02-13T03:08:52;98856.63;;;1.96;100.00
10348;BME280;5220;43.192;23.284;2023-02-13T03:11:45;98855.13;;;1.73;100.00
10348;BME280;5220;43.192;23.284;2023-02-13T03:14:32;98856.78;;;1.78;100.00
10348;BME280;5220;43.192;23.284;2023-02-13T03:16:59;98859.41;;;1.72;100.00
10348;BME280;5220;43.192;23.284;2023-02-13T03:19:54;98855.16;;;1.71;100.00
10348;BME280;5220;43.192;23.284;2023-02-13T03:22:49;98856.94;;;1.61;100.00
10348;BME280;5220;43.192;23.284;2023-02-13T03:25:21;98848.34;;;1.64;100.00
10348;BME280;5220;43.192;23.284;2023-02-13T03:28:07;98856.00;;;1.70;100.00
10348;BME280;5220;43.192;23.284;2023-02-13T03:31:05;98859.31;;;1.81;100.00
10348;BME280;5220;43.192;23.284;2023-02-13T03:33:50;98853.44;;;1.69;100.00
10348;BME280;5220;43.192;23.284;2023-02-13T03:36:29;98856.75;;;1.83;100.00
10348;BME280;5220;43.192;23.284;2023-02-13T03:39:22;98865.25;;;1.91;100.00
10348;BME280;5220;43.192;23.284;2023-02-13T03:41:54;98859.28;;;1.89;100.00
10348;BME280;5220;43.192;23.284;2023-02-13T03:44:28;98863.56;;;1.88;100.00
10348;BME280;5220;43.192;23.284;2023-02-13T03:46:58;98854.13;;;1.87;100.00
10348;BME280;5220;43.192;23.284;2023-02-13T03:49:29;98849.94;;;1.79;100.00
10348;BME280;5220;43.192;23.284;2023-02-13T03:52:18;98857.66;;;1.76;100.00
10348;BME280;5220;43.192;23.284;2023-02-13T03:54:51;98853.38;;;1.76;100.00
10348;BME280;5220;43.192;23.284;2023-02-13T03:57:40;98844.06;;;1.68;100.00
10348;BME280;5220;43.192;23.284;2023-02-13T04:00:27;98849.22;;;1.60;100.00
10348;BME280;5220;43.192;23.284;2023-02-13T04:03:03;98851.09;;;1.35;100.00
10348;BME280;5220;43.192;23.284;2023-02-13T04:05:36;98860.44;;;1.48;100.00
10348;BME280;5220;43.192;23.284;2023-02-13T04:08:05;98856.28;;;1.29;100.00
10348;BME280;5220;43.192;23.284;2023-02-13T04:10:36;98854.59;;;1.27;100.00
10348;BME280;5220;43.192;23.284;2023-02-13T04:13:12;98845.22;;;1.24;100.00
10348;BME280;5220;43.192;23.284;2023-02-13T04:15:43;98844.38;;;1.21;100.00
10348;BME280;5220;43.192;23.284;2023-02-13T04:18:14;98849.38;;;1.37;100.00
10348;BME280;5220;43.192;23.284;2023-02-13T04:20:42;98843.41;;;1.38;100.00
10348;BME280;5220;43.192;23.284;2023-02-13T04:23:10;98850.16;;;1.51;100.00
10348;BME280;5220;43.192;23.284;2023-02-13T04:25:41;98852.66;;;1.56;100.00
10348;BME280;5220;43.192;23.284;2023-02-13T04:28:08;98848.44;;;1.52;100.00
10348;BME280;5220;43.192;23.284;2023-02-13T04:30:35;98848.41;;;1.58;100.00
10348;BME280;5220;43.192;23.284;2023-02-13T04:33:02;98851.88;;;1.52;100.00
10348;BME280;5220;43.192;23.284;2023-02-13T04:35:29;98860.38;;;1.57;100.00
10348;BME280;5220;43.192;23.284;2023-02-13T04:37:55;98856.19;;;1.43;100.00
10348;BME280;5220;43.192;23.284;2023-02-13T04:40:22;98860.38;;;1.53;100.00
10348;BME280;5220;43.192;23.284;2023-02-13T04:42:50;98862.09;;;1.54;100.00
10348;BME280;5220;43.192;23.284;2023-02-13T04:45:17;98859.56;;;1.51;100.00
10348;BME280;5220;43.192;23.284;2023-02-13T04:47:49;98859.59;;;1.43;100.00
10348;BME280;5220;43.192;23.284;2023-02-13T04:50:16;98867.28;;;1.48;100.00
10348;BME280;5220;43.192;23.284;2023-02-13T04:52:43;98857.88;;;1.45;100.00
10348;BME280;5220;43.192;23.284;2023-02-13T04:55:10;98865.66;;;1.33;100.00
10348;BME280;5220;43.192;23.284;2023-02-13T04:57:37;98863.22;;;1.11;100.00
10348;BME280;5220;43.192;23.284;2023-02-13T05:00:07;98867.50;;;1.04;100.00
10348;BME280;5220;43.192;23.284;2023-02-13T05:02:34;98884.53;;;1.20;100.00
10348;BME280;5220;43.192;23.284;2023-02-13T05:05:01;98876.81;;;1.19;100.00
10348;BME280;5220;43.192;23.284;2023-02-13T05:07:27;98875.19;;;1.07;100.00
10348;BME280;5220;43.192;23.284;2023-02-13T05:09:54;98882.84;;;1.15;100.00
10348;BME280;5220;43.192;23.284;2023-02-13T05:12:21;98876.84;;;1.16;100.00
10348;BME280;5220;43.192;23.284;2023-02-13T05:14:47;98879.41;;;1.17;100.00
10348;BME280;5220;43.192;23.284;2023-02-13T05:17:16;98883.75;;;1.00;100.00
10348;BME280;5220;43.192;23.284;2023-02-13T05:19:42;98885.44;;;1.07;100.00
10348;BME280;5220;43.192;23.284;2023-02-13T05:22:09;98891.41;;;1.11;100.00
10348;BME280;5220;43.192;23.284;2023-02-13T05:24:54;98897.38;;;1.09;100.00
10348;BME280;5220;43.192;23.284;2023-02-13T05:27:20;98894.84;;;1.08;100.00
10348;BME280;5220;43.192;23.284;2023-02-13T05:29:47;98893.13;;;1.08;100.00
10348;BME280;5220;43.192;23.284;2023-02-13T05:32:15;98901.63;;;1.09;100.00
10348;BME280;5220;43.192;23.284;2023-02-13T05:34:42;98899.94;;;1.13;100.00
10348;BME280;5220;43.192;23.284;2023-02-13T05:37:09;98903.38;;;1.08;100.00
10348;BME280;5220;43.192;23.284;2023-02-13T05:39:36;98905.06;;;1.09;100.00
10348;BME280;5220;43.192;23.284;2023-02-13T05:42:02;98911.06;;;1.08;100.00
10348;BME280;5220;43.192;23.284;2023-02-13T05:44:29;98923.03;;;1.03;100.00
10348;BME280;5220;43.192;23.284;2023-02-13T05:46:56;98919.63;;;1.00;100.00
10348;BME280;5220;43.192;23.284;2023-02-13T05:49:24;98928.19;;;0.99;100.00
10348;BME280;5220;43.192;23.284;2023-02-13T05:51:51;98927.34;;;0.95;100.00
10348;BME280;5220;43.192;23.284;2023-02-13T05:54:18;98926.50;;;0.92;100.00
10348;BME280;5220;43.192;23.284;2023-02-13T05:56:45;98922.19;;;0.98;100.00
10348;BME280;5220;43.192;23.284;2023-02-13T05:59:12;98924.78;;;0.98;100.00
10348;BME280;5220;43.192;23.284;2023-02-13T06:01:38;98915.44;;;0.84;100.00
10348;BME280;5220;43.192;23.284;2023-02-13T06:04:05;98915.44;;;0.69;100.00
10348;BME280;5220;43.192;23.284;2023-02-13T06:06:33;98912.03;;;0.70;100.00
10348;BME280;5220;43.192;23.284;2023-02-13T06:09:00;98912.91;;;0.57;100.00
10348;BME280;5220;43.192;23.284;2023-02-13T06:11:27;98916.34;;;0.65;100.00
10348;BME280;5220;43.192;23.284;2023-02-13T06:13:54;98923.16;;;0.58;100.00
10348;BME280;5220;43.192;23.284;2023-02-13T06:16:20;98923.13;;;0.76;100.00
10348;BME280;5220;43.192;23.284;2023-02-13T06:18:47;98925.69;;;0.81;100.00
10348;BME280;5220;43.192;23.284;2023-02-13T06:21:14;98922.22;;;0.95;100.00
10348;BME280;5220;43.192;23.284;2023-02-13T06:23:43;98919.66;;;0.92;100.00
10348;BME280;5220;43.192;23.284;2023-02-13T06:26:09;98917.06;;;1.01;100.00
10348;BME280;5220;43.192;23.284;2023-02-13T06:28:36;98914.47;;;1.12;100.00
10348;BME280;5220;43.192;23.284;2023-02-13T06:31:03;98916.13;;;1.24;100.00
10348;BME280;5220;43.192;23.284;2023-02-13T06:33:30;98914.34;;;1.39;100.00
10348;BME280;5220;43.192;23.284;2023-02-13T06:35:57;98917.69;;;1.49;100.00
10348;BME280;5220;43.192;23.284;2023-02-13T06:38:24;98920.22;;;1.56;100.00
10348;BME280;5220;43.192;23.284;2023-02-13T06:40:52;98916.84;;;1.47;100.00
10348;BME280;5220;43.192;23.284;2023-02-13T06:43:19;98912.47;;;1.62;100.00
10348;BME280;5220;43.192;23.284;2023-02-13T06:45:45;98909.00;;;1.70;100.00
10348;BME280;5220;43.192;23.284;2023-02-13T06:48:12;98919.22;;;1.79;100.00
10348;BME280;5220;43.192;23.284;2023-02-13T06:50:39;98926.88;;;1.86;100.00
10348;BME280;5220;43.192;23.284;2023-02-13T06:53:06;98919.94;;;1.97;100.00
10348;BME280;5220;43.192;23.284;2023-02-13T06:55:33;98919.88;;;2.05;100.00
10348;BME280;5220;43.192;23.284;2023-02-13T06:58:01;98920.69;;;2.11;100.00
10348;BME280;5220;43.192;23.284;2023-02-13T07:00:29;98918.06;;;2.17;100.00
10348;BME280;5220;43.192;23.284;2023-02-13T07:03:00;98920.59;;;2.24;100.00
10348;BME280;5220;43.192;23.284;2023-02-13T07:05:27;98920.53;;;2.30;100.00
10348;BME280;5220;43.192;23.284;2023-02-13T07:07:54;98920.47;;;2.36;100.00
10348;BME280;5220;43.192;23.284;2023-02-13T07:10:21;98927.28;;;2.40;100.00
10348;BME280;5220;43.192;23.284;2023-02-13T07:12:47;98929.81;;;2.44;100.00
10348;BME280;5220;43.192;23.284;2023-02-13T07:15:16;98924.63;;;2.50;100.00
10348;BME280;5220;43.192;23.284;2023-02-13T07:17:42;98921.94;;;2.59;100.00
10348;BME280;5220;43.192;23.284;2023-02-13T07:20:10;98919.28;;;2.70;100.00
10348;BME280;5220;43.192;23.284;2023-02-13T07:22:37;98925.13;;;2.84;100.00
10348;BME280;5220;43.192;23.284;2023-02-13T07:25:04;98921.56;;;2.99;100.00
10348;BME280;5220;43.192;23.284;2023-02-13T07:27:31;98923.03;;;3.16;100.00
10348;BME280;5220;43.192;23.284;2023-02-13T07:29:58;98922.84;;;3.33;100.00
10348;BME280;5220;43.192;23.284;2023-02-13T07:32:26;98928.59;;;3.49;100.00
10348;BME280;5220;43.192;23.284;2023-02-13T07:34:53;98923.34;;;3.59;100.00
10348;BME280;5220;43.192;23.284;2023-02-13T07:37:19;98923.97;;;3.76;100.00
10348;BME280;5220;43.192;23.284;2023-02-13T07:39:46;98928.84;;;3.93;100.00
10348;BME280;5220;43.192;23.284;2023-02-13T07:42:13;98920.06;;;4.06;100.00
10348;BME280;5220;43.192;23.284;2023-02-13T07:44:39;98923.28;;;4.19;100.00
10348;BME280;5220;43.192;23.284;2023-02-13T07:47:06;98921.31;;;4.33;100.00
10348;BME280;5220;43.192;23.284;2023-02-13T07:49:34;98920.28;;;4.45;100.00
10348;BME280;5220;43.192;23.284;2023-02-13T07:52:02;98925.25;;;4.55;100.00
10348;BME280;5220;43.192;23.284;2023-02-13T07:54:28;98920.78;;;4.65;100.00
10348;BME280;5220;43.192;23.284;2023-02-13T07:56:55;98930.97;;;4.72;100.00
10348;BME280;5220;43.192;23.284;2023-02-13T07:59:22;98910.16;;;4.81;100.00
10348;BME280;5220;43.192;23.284;2023-02-13T08:01:49;98920.25;;;4.92;100.00
10348;BME280;5220;43.192;23.284;2023-02-13T08:04:16;98911.41;;;5.05;100.00
10348;BME280;5220;43.192;23.284;2023-02-13T08:06:44;98917.16;;;5.19;100.00
10348;BME280;5220;43.192;23.284;2023-02-13T08:09:17;98911.69;;;5.33;100.00
10348;BME280;5220;43.192;23.284;2023-02-13T08:12:03;98910.63;;;5.45;100.00
10348;BME280;5220;43.192;23.284;2023-02-13T08:14:30;98903.34;;;5.62;100.00
10348;BME280;5220;43.192;23.284;2023-02-13T08:16:58;98899.88;;;5.63;100.00
10348;BME280;5220;43.192;23.284;2023-02-13T08:19:26;98897.88;;;5.75;100.00
10348;BME280;5220;43.192;23.284;2023-02-13T08:21:55;98897.50;;;5.92;100.00
10348;BME280;5220;43.192;23.284;2023-02-13T08:24:21;98897.19;;;6.06;100.00
10348;BME280;5220;43.192;23.284;2023-02-13T08:26:48;98898.53;;;6.22;100.00
10348;BME280;5220;43.192;23.284;2023-02-13T08:29:15;98888.06;;;6.26;100.00
10348;BME280;5220;43.192;23.284;2023-02-13T08:31:41;98895.72;;;6.31;100.00
10348;BME280;5220;43.192;23.284;2023-02-13T08:34:08;98898.00;;;6.41;100.00
10348;BME280;5220;43.192;23.284;2023-02-13T08:36:35;98891.16;;;6.40;100.00
10348;BME280;5220;43.192;23.284;2023-02-13T08:39:04;98891.44;;;6.62;100.00
10348;BME280;5220;43.192;23.284;2023-02-13T08:41:30;98896.75;;;6.24;100.00
10348;BME280;5220;43.192;23.284;2023-02-13T08:43:57;98896.25;;;6.43;100.00
10348;BME280;5220;43.192;23.284;2023-02-13T08:46:24;98900.25;;;6.55;100.00
10348;BME280;5220;43.192;23.284;2023-02-13T08:48:50;98899.31;;;6.25;100.00
10348;BME280;5220;43.192;23.284;2023-02-13T08:51:17;98887.91;;;6.32;100.00
10348;BME280;5220;43.192;23.284;2023-02-13T08:53:44;98887.47;;;6.51;100.00
10348;BME280;5220;43.192;23.284;2023-02-13T08:56:12;98889.56;;;6.69;100.00
10348;BME280;5220;43.192;23.284;2023-02-13T08:58:39;98890.97;;;6.80;99.37
10348;BME280;5220;43.192;23.284;2023-02-13T09:01:06;98883.88;;;6.87;97.93
10348;BME280;5220;43.192;23.284;2023-02-13T09:03:34;98887.75;;;7.62;100.00
10348;BME280;5220;43.192;23.284;2023-02-13T09:06:01;98878.72;;;7.45;100.00
10348;BME280;5220;43.192;23.284;2023-02-13T09:08:28;98884.06;;;7.41;96.27
10348;BME280;5220;43.192;23.284;2023-02-13T09:10:57;98868.38;;;7.16;95.05
10348;BME280;5220;43.192;23.284;2023-02-13T09:13:25;98877.59;;;6.95;96.21
10348;BME280;5220;43.192;23.284;2023-02-13T09:15:52;98874.97;;;7.26;97.09
10348;BME280;5220;43.192;23.284;2023-02-13T09:18:19;98870.28;;;7.40;95.08
10348;BME280;5220;43.192;23.284;2023-02-13T09:20:46;98876.03;;;7.50;90.96
10348;BME280;5220;43.192;23.284;2023-02-13T09:23:12;98872.78;;;7.71;87.04
10348;BME280;5220;43.192;23.284;2023-02-13T09:25:39;98867.50;;;7.74;83.57
10348;BME280;5220;43.192;23.284;2023-02-13T09:28:06;98875.09;;;7.79;85.59
10348;BME280;5220;43.192;23.284;2023-02-13T09:30:34;98869.00;;;7.81;82.17
10348;BME280;5220;43.192;23.284;2023-02-13T09:33:00;98865.97;;;7.95;80.70
10348;BME280;5220;43.192;23.284;2023-02-13T09:35:27;98861.41;;;8.03;79.38
10348;BME280;5220;43.192;23.284;2023-02-13T09:37:54;98855.59;;;7.95;78.39
10348;BME280;5220;43.192;23.284;2023-02-13T09:40:26;98859.94;;;7.94;79.07
10348;BME280;5220;43.192;23.284;2023-02-13T09:43:03;98848.03;;;8.15;85.79
10348;BME280;5220;43.192;23.284;2023-02-13T09:45:30;98844.84;;;8.33;92.50
10348;BME280;5220;43.192;23.284;2023-02-13T09:47:59;98845.16;;;8.23;75.73
10348;BME280;5220;43.192;23.284;2023-02-13T09:50:28;98834.75;;;8.24;76.56
10348;BME280;5220;43.192;23.284;2023-02-13T09:52:58;98848.97;;;8.39;77.53
10348;BME280;5220;43.192;23.284;2023-02-13T09:55:28;98841.88;;;8.44;75.85
10348;BME280;5220;43.192;23.284;2023-02-13T09:58:08;98834.09;;;8.44;82.53
10348;BME280;5220;43.192;23.284;2023-02-13T10:00:39;98830.47;;;8.49;75.94
10348;BME280;5220;43.192;23.284;2023-02-13T10:03:27;98822.41;;;8.57;73.18
10348;BME280;5220;43.192;23.284;2023-02-13T10:06:00;98831.72;;;8.62;72.91
10348;BME280;5220;43.192;23.284;2023-02-13T10:08:37;98820.94;;;8.75;73.62
10348;BME280;5220;43.192;23.284;2023-02-13T10:11:19;98820.19;;;8.46;84.40
10348;BME280;5220;43.192;23.284;2023-02-13T10:14:00;98813.09;;;8.51;80.40
10348;BME280;5220;43.192;23.284;2023-02-13T10:16:29;98806.59;;;8.64;77.04
10348;BME280;5220;43.192;23.284;2023-02-13T10:19:03;98811.16;;;8.81;77.06
10348;BME280;5220;43.192;23.284;2023-02-13T10:21:35;98793.09;;;8.78;74.71
10348;BME280;5220;43.192;23.284;2023-02-13T10:24:09;98795.66;;;8.80;76.11
10348;BME280;5220;43.192;23.284;2023-02-13T10:26:40;98799.66;;;8.88;76.99
10348;BME280;5220;43.192;23.284;2023-02-13T10:29:14;98794.97;;;8.75;76.85
10348;BME280;5220;43.192;23.284;2023-02-13T10:32:02;98790.38;;;8.81;78.05
10348;BME280;5220;43.192;23.284;2023-02-13T10:34:36;98786.63;;;8.90;81.61
10348;BME280;5220;43.192;23.284;2023-02-13T10:37:11;98783.56;;;8.79;78.73
10348;BME280;5220;43.192;23.284;2023-02-13T10:39:40;98783.56;;;9.02;78.46
10348;BME280;5220;43.192;23.284;2023-02-13T10:42:17;98782.34;;;9.12;80.01
10348;BME280;5220;43.192;23.284;2023-02-13T10:45:00;98786.38;;;9.19;77.15
10348;BME280;5220;43.192;23.284;2023-02-13T10:47:38;98779.91;;;9.07;73.73
10348;BME280;5220;43.192;23.284;2023-02-13T10:50:16;98777.91;;;9.14;74.24
10348;BME280;5220;43.192;23.284;2023-02-13T10:52:52;98775.97;;;9.19;74.52
10348;BME280;5220;43.192;23.284;2023-02-13T10:56:01;98776.47;;;9.29;75.54
10348;BME280;5220;43.192;23.284;2023-02-13T10:58:41;98775.59;;;9.06;74.03
10348;BME280;5220;43.192;23.284;2023-02-13T11:01:16;98775.94;;;8.97;76.61
10348;BME280;5220;43.192;23.284;2023-02-13T11:03:44;98770.97;;;9.14;77.61
10348;BME280;5220;43.192;23.284;2023-02-13T11:06:15;98771.94;;;9.12;77.37
10348;BME280;5220;43.192;23.284;2023-02-13T11:08:46;98780.31;;;9.18;75.82
10348;BME280;5220;43.192;23.284;2023-02-13T11:11:30;98772.78;;;9.34;75.57
10348;BME280;5220;43.192;23.284;2023-02-13T11:14:15;98770.88;;;9.17;76.10
10348;BME280;5220;43.192;23.284;2023-02-13T11:16:48;98773.81;;;9.08;77.92
10348;BME280;5220;43.192;23.284;2023-02-13T11:19:18;98767.81;;;9.06;94.42
10348;BME280;5220;43.192;23.284;2023-02-13T11:21:48;98768.16;;;8.97;80.84
10348;BME280;5220;43.192;23.284;2023-02-13T11:24:20;98760.69;;;8.90;80.41
10348;BME280;5220;43.192;23.284;2023-02-13T11:26:52;98752.94;;;8.88;85.29
10348;BME280;5220;43.192;23.284;2023-02-13T11:29:23;98756.53;;;9.07;86.10
10348;BME280;5220;43.192;23.284;2023-02-13T11:32:08;98751.56;;;9.25;81.84
10348;BME280;5220;43.192;23.284;2023-02-13T11:34:42;98748.75;;;9.29;79.37
10348;BME280;5220;43.192;23.284;2023-02-13T11:37:17;98746.81;;;9.34;79.51
10348;BME280;5220;43.192;23.284;2023-02-13T11:39:46;98748.09;;;9.46;79.13
10348;BME280;5220;43.192;23.284;2023-02-13T11:42:14;98740.66;;;9.58;76.35
10348;BME280;5220;43.192;23.284;2023-02-13T11:44:47;98746.56;;;9.40;76.76
10348;BME280;5220;43.192;23.284;2023-02-13T11:47:15;98743.19;;;9.38;78.46
10348;BME280;5220;43.192;23.284;2023-02-13T11:49:44;98731.66;;;9.45;79.46
10348;BME280;5220;43.192;23.284;2023-02-13T11:52:23;98734.91;;;9.50;77.74
10348;BME280;5220;43.192;23.284;2023-02-13T11:54:56;98725.44;;;9.49;76.28
10348;BME280;5220;43.192;23.284;2023-02-13T11:57:28;98735.13;;;9.66;77.50
10348;BME280;5220;43.192;23.284;2023-02-13T11:59:55;98731.38;;;9.73;74.54
10348;BME280;5220;43.192;23.284;2023-02-13T12:02:24;98717.53;;;9.72;74.03
10348;BME280;5220;43.192;23.284;2023-02-13T12:04:53;98718.31;;;9.54;72.74
10348;BME280;5220;43.192;23.284;2023-02-13T12:07:24;98721.88;;;9.52;73.27
10348;BME280;5220;43.192;23.284;2023-02-13T12:09:56;98719.69;;;9.41;74.52
10348;BME280;5220;43.192;23.284;2023-02-13T12:12:29;98714.16;;;9.29;72.21
10348;BME280;5220;43.192;23.284;2023-02-13T12:15:01;98710.72;;;9.70;71.56
10348;BME280;5220;43.192;23.284;2023-02-13T12:17:29;98709.31;;;9.83;71.20
10348;BME280;5220;43.192;23.284;2023-02-13T12:19:57;98703.91;;;10.08;71.88
10348;BME280;5220;43.192;23.284;2023-02-13T12:22:31;98693.78;;;10.22;69.17
10348;BME280;5220;43.192;23.284;2023-02-13T12:25:40;98685.56;;;10.31;71.30
10348;BME280;5220;43.192;23.284;2023-02-13T12:28:14;98684.84;;;10.27;68.53
10348;BME280;5220;43.192;23.284;2023-02-13T12:30:58;98688.00;;;9.95;71.71
10348;BME280;5220;43.192;23.284;2023-02-13T12:36:23;98671.16;;;9.63;77.01
10348;BME280;5220;43.192;23.284;2023-02-13T12:39:04;98671.78;;;9.68;76.21
10348;BME280;5220;43.192;23.284;2023-02-13T12:41:39;98671.81;;;9.89;73.65
10348;BME280;5220;43.192;23.284;2023-02-13T12:44:25;98670.63;;;9.76;74.63
10348;BME280;5220;43.192;23.284;2023-02-13T12:47:05;98650.97;;;10.09;90.45
10348;BME280;5220;43.192;23.284;2023-02-13T12:50:08;98651.97;;;10.06;77.70
10348;BME280;5220;43.192;23.284;2023-02-13T12:52:47;98638.69;;;10.12;77.37
10348;BME280;5220;43.192;23.284;2023-02-13T12:55:28;98634.97;;;10.38;96.28
10348;BME280;5220;43.192;23.284;2023-02-13T12:58:06;98630.03;;;10.32;76.32
10348;BME280;5220;43.192;23.284;2023-02-13T13:00:46;98627.09;;;10.01;78.28
10348;BME280;5220;43.192;23.284;2023-02-13T13:03:33;98630.97;;;10.11;77.46
10348;BME280;5220;43.192;23.284;2023-02-13T13:09:26;98622.84;;;10.37;72.51
10348;BME280;5220;43.192;23.284;2023-02-13T13:12:09;98622.38;;;10.48;71.35
10348;BME280;5220;43.192;23.284;2023-02-13T13:14:46;98622.03;;;10.37;71.45
10348;BME280;5220;43.192;23.284;2023-02-13T13:17:26;98625.19;;;10.43;70.70
10348;BME280;5220;43.192;23.284;2023-02-13T13:20:07;98619.00;;;10.27;72.28
10348;BME280;5220;43.192;23.284;2023-02-13T13:22:47;98620.75;;;10.27;73.20
10348;BME280;5220;43.192;23.284;2023-02-13T13:25:22;98622.50;;;10.26;73.28
10348;BME280;5220;43.192;23.284;2023-02-13T13:27:56;98620.81;;;10.25;76.09
10348;BME280;5220;43.192;23.284;2023-02-13T13:30:26;98605.72;;;10.33;73.10
10348;BME280;5220;43.192;23.284;2023-02-13T13:32:56;98615.38;;;10.11;77.09
10348;BME280;5220;43.192;23.284;2023-02-13T13:35:26;98620.72;;;10.08;75.12
10348;BME280;5220;43.192;23.284;2023-02-13T13:38:00;98613.91;;;10.05;74.39